Time;durP1;ratioP1;P1;durP2;ratioP2;P2;SDS_P1;SDS_P2;PMS_P1;PMS_P2;Temp;Humidity;BMP_temperature;BMP_pressure;BME280_temperature;BME280_humidity;BME280_pressure;Samples;Min_cycle;Max_cycle;Signal;HPM_P1;HPM_P2
2022/01/02 00:00:04;;;;;;;6.40;5.63;;;;;;;7.81;88.50;97342.06;5111446;28;20471;-68
2022/01/02 00:02:32;;;;;;;6.37;5.50;;;;;;;7.53;88.98;97336.91;5110931;28;20385;-65
2022/01/02 00:05:07;;;;;;;7.00;5.30;;;;;;;7.67;88.63;97337.78;5110579;28;20937;-65
2022/01/02 00:07:42;;;;;;;8.30;5.77;;;;;;;7.49;89.65;97339.13;5113689;28;20461;-65
2022/01/02 00:10:09;;;;;;;6.60;5.55;;;;;;;7.66;88.66;97342.22;5114780;28;20845;-65
2022/01/02 00:12:35;;;;;;;5.90;5.30;;;;;;;7.42;89.72;97343.50;5114537;28;20490;-65
2022/01/02 00:15:06;;;;;;;6.32;5.60;;;;;;;7.24;90.61;97350.22;5114782;28;20734;-65
2022/01/02 00:17:32;;;;;;;6.72;5.78;;;;;;;7.31;90.13;97338.81;5114802;28;20475;-65
2022/01/02 00:20:03;;;;;;;6.27;5.50;;;;;;;7.26;90.21;97353.41;5114239;28;20973;-65
2022/01/02 00:22:37;;;;;;;6.13;5.47;;;;;;;7.42;89.41;97338.28;5114128;28;20463;-65
2022/01/02 00:25:08;;;;;;;5.82;5.00;;;;;;;7.52;88.64;97350.97;5114917;28;20396;-65
2022/01/02 00:27:37;;;;;;;6.60;5.80;;;;;;;7.46;89.42;97346.53;5114700;28;20500;-65
2022/01/02 00:30:06;;;;;;;7.50;5.30;;;;;;;7.65;88.39;97334.56;5113600;28;20388;-65
2022/01/02 00:32:33;;;;;;;6.40;5.72;;;;;;;7.62;88.41;97330.56;5113664;28;20385;-65
2022/01/02 00:35:00;;;;;;;7.47;5.82;;;;;;;7.70;87.69;97316.53;5114359;28;20435;-66
2022/01/02 00:37:26;;;;;;;6.35;5.53;;;;;;;7.48;88.44;97318.44;5114356;28;20397;-65
2022/01/02 00:39:51;;;;;;;6.60;5.60;;;;;;;7.38;89.75;97324.03;5114923;28;20385;-65
2022/01/02 00:42:39;;;;;;;6.70;5.97;;;;;;;7.30;89.91;97326.00;5114309;28;20394;-65
2022/01/02 00:45:07;;;;;;;5.95;5.35;;;;;;;7.20;90.62;97334.13;5095837;28;20392;-65
2022/01/02 00:47:58;;;;;;;6.78;5.38;;;;;;;7.14;90.89;97341.91;5114093;28;20397;-65
2022/01/02 00:50:26;;;;;;;6.75;5.38;;;;;;;7.33;89.88;97330.81;5113707;28;20400;-65
2022/01/02 00:52:57;;;;;;;6.25;5.22;;;;;;;7.25;90.29;97336.97;5114092;28;20384;-65
2022/01/02 00:55:24;;;;;;;6.10;5.28;;;;;;;7.27;90.08;97326.34;5113924;28;20412;-65
2022/01/02 00:58:07;;;;;;;6.25;5.65;;;;;;;7.10;91.38;97331.06;5114093;28;20390;-65
2022/01/02 01:00:33;;;;;;;6.88;5.90;;;;;;;7.03;91.89;97330.22;5114222;28;20400;-66
2022/01/02 01:03:09;;;;;;;8.05;6.25;;;;;;;7.31;90.76;97322.38;5113762;28;20475;-65
2022/01/02 01:05:37;;;;;;;6.65;6.03;;;;;;;7.09;91.63;97325.06;5113863;28;20400;-68
2022/01/02 01:08:07;;;;;;;6.38;5.43;;;;;;;6.95;92.27;97314.75;5114131;28;20392;-65
2022/01/02 01:10:35;;;;;;;6.63;5.40;;;;;;;6.91;92.69;97314.31;5113708;28;20742;-65
2022/01/02 01:13:04;;;;;;;7.05;5.43;;;;;;;7.06;91.92;97307.19;5113300;28;20881;-65
2022/01/02 01:15:31;;;;;;;6.50;5.13;;;;;;;7.25;90.82;97304.88;5114015;28;20407;-65
2022/01/02 01:18:00;;;;;;;6.07;5.30;;;;;;;7.21;90.35;97301.06;5112404;28;20857;-66
2022/01/02 01:20:31;;;;;;;6.13;5.03;;;;;;;7.25;90.41;97305.69;5113557;28;20457;-65
2022/01/02 01:22:57;;;;;;;6.55;5.47;;;;;;;7.18;90.00;97301.44;5113601;28;20487;-65
2022/01/02 01:25:24;;;;;;;5.47;4.97;;;;;;;7.28;89.54;97294.88;5113837;28;20393;-65
2022/01/02 01:27:51;;;;;;;6.50;5.07;;;;;;;7.30;89.15;97300.69;5113646;28;20388;-65
2022/01/02 01:30:20;;;;;;;5.95;4.70;;;;;;;7.28;89.38;97294.09;5113305;28;20448;-65
2022/01/02 01:32:46;;;;;;;6.38;5.10;;;;;;;7.17;89.88;97290.22;5113329;28;20384;-65
2022/01/02 01:35:13;;;;;;;8.45;5.20;;;;;;;7.13;90.00;97296.81;5113344;28;20415;-65
2022/01/02 01:37:39;;;;;;;5.55;5.03;;;;;;;7.17;89.75;97292.00;5113067;28;20400;-65
2022/01/02 01:40:10;;;;;;;5.85;4.63;;;;;;;7.12;89.68;97290.00;5113530;28;20449;-65
2022/01/02 01:42:38;;;;;;;6.18;5.25;;;;;;;7.29;87.84;97286.06;5112988;28;20396;-65
2022/01/02 01:47:48;;;;;;;5.60;5.05;;;;;;;7.34;87.18;97283.69;5113376;28;20396;-65
2022/01/02 01:50:14;;;;;;;5.50;4.97;;;;;;;7.23;87.17;97281.63;5113076;28;20400;-65
2022/01/02 01:52:39;;;;;;;6.30;5.03;;;;;;;7.22;87.11;97290.44;5112739;28;20475;-65
2022/01/02 01:55:06;;;;;;;5.22;4.40;;;;;;;7.01;88.50;97288.72;5112863;28;20746;-65
2022/01/02 01:57:31;;;;;;;5.10;4.60;;;;;;;7.20;86.92;97282.00;5112817;28;20943;-65
2022/01/02 01:59:57;;;;;;;5.05;4.55;;;;;;;7.42;85.45;97272.28;5112824;28;20472;-65
2022/01/02 02:02:23;;;;;;;4.67;4.27;;;;;;;7.17;85.67;97285.00;5112390;28;20929;-66
2022/01/02 02:04:48;;;;;;;5.18;4.68;;;;;;;7.03;87.07;97278.09;5103529;28;20415;-65
2022/01/02 02:07:15;;;;;;;5.37;4.63;;;;;;;6.88;88.18;97280.00;5113046;28;20427;-65
2022/01/02 02:12:25;;;;;;;6.20;5.00;;;;;;;6.78;89.15;97276.94;5112136;28;20387;-69
2022/01/02 02:14:51;;;;;;;5.88;5.20;;;;;;;6.92;88.83;97266.41;5112292;28;20426;-66
2022/01/02 02:17:17;;;;;;;6.53;5.55;;;;;;;6.91;88.21;97261.41;5112874;28;20467;-65
2022/01/02 02:19:42;;;;;;;6.07;5.37;;;;;;;6.91;88.05;97256.19;5112267;28;20884;-65
2022/01/02 02:22:08;;;;;;;6.10;5.22;;;;;;;6.67;88.92;97253.03;5112876;28;20392;-65
2022/01/02 02:24:33;;;;;;;6.23;5.60;;;;;;;6.69;89.00;97238.00;5112660;28;20376;-65
2022/01/02 02:26:59;;;;;;;8.17;6.00;;;;;;;6.71;89.31;97231.81;5112025;28;20382;-66
2022/01/02 02:29:24;;;;;;;6.55;5.80;;;;;;;6.70;88.93;97233.59;5111855;28;20392;-65
2022/01/02 02:31:54;;;;;;;6.17;5.43;;;;;;;6.78;88.79;97238.69;5093776;28;20508;-65
2022/01/02 02:34:19;;;;;;;5.63;5.00;;;;;;;6.61;89.18;97237.38;5111903;28;20412;-65
2022/01/02 02:36:45;;;;;;;6.20;5.10;;;;;;;6.87;88.18;97232.31;5112415;28;20457;-65
2022/01/02 02:39:10;;;;;;;5.77;5.17;;;;;;;6.93;87.35;97234.16;5112198;28;20453;-65
2022/01/02 02:41:37;;;;;;;6.30;5.57;;;;;;;6.81;87.79;97224.44;5111737;28;20883;-65
2022/01/02 02:44:16;;;;;;;6.72;5.93;;;;;;;6.76;88.36;97217.22;5112033;28;20786;-65
2022/01/02 02:49:26;;;;;;;6.68;5.70;;;;;;;6.63;88.62;97212.72;5112129;28;20422;-65
2022/01/02 02:51:56;;;;;;;6.30;5.70;;;;;;;6.60;88.71;97214.91;5111295;28;20407;-65
2022/01/02 02:54:27;;;;;;;6.63;5.90;;;;;;;6.72;87.71;97207.38;5110506;28;20868;-65
2022/01/02 02:59:28;;;;;;;8.13;6.80;;;;;;;6.58;87.82;97196.06;5094240;28;20392;-65
2022/01/02 03:01:54;;;;;;;8.38;6.78;;;;;;;6.15;90.02;97196.16;5111807;28;20388;-65
2022/01/02 03:04:21;;;;;;;7.68;6.88;;;;;;;6.26;89.95;97195.66;5111438;28;20384;-65
2022/01/02 03:06:47;;;;;;;9.93;8.00;;;;;;;6.39;89.15;97189.75;5095426;28;20392;-65
2022/01/02 03:09:13;;;;;;;7.88;7.07;;;;;;;6.12;89.79;97195.75;5111571;28;20396;-66
2022/01/02 03:11:41;;;;;;;7.68;6.45;;;;;;;6.14;90.07;97191.97;5111840;28;20407;-63
2022/01/02 03:14:09;;;;;;;7.22;6.28;;;;;;;6.16;90.00;97183.97;5111758;28;20408;-63
2022/01/02 03:16:34;;;;;;;6.55;5.80;;;;;;;6.09;89.88;97186.50;5111933;28;20386;-63
2022/01/02 03:18:59;;;;;;;6.40;5.80;;;;;;;6.32;89.05;97167.25;5112111;28;20426;-63
2022/01/02 03:21:25;;;;;;;6.60;5.40;;;;;;;6.36;89.65;97166.69;5111317;28;20925;-63
2022/01/02 03:23:51;;;;;;;5.37;4.87;;;;;;;6.59;89.03;97169.03;5111732;28;20412;-66
2022/01/02 03:26:17;;;;;;;6.57;4.53;;;;;;;6.69;88.02;97164.28;5111519;28;20756;-64
2022/01/02 03:28:43;;;;;;;5.38;4.88;;;;;;;6.59;88.46;97162.03;5111774;28;20376;-63
2022/01/02 03:31:08;;;;;;;5.20;4.70;;;;;;;6.79;87.14;97164.75;5111787;28;20947;-63
2022/01/02 03:33:34;;;;;;;5.10;4.60;;;;;;;6.84;86.47;97151.13;5111593;28;20381;-63
2022/01/02 03:36:00;;;;;;;5.40;4.80;;;;;;;6.63;86.44;97150.22;5112207;28;20392;-63
2022/01/02 03:38:26;;;;;;;5.97;5.13;;;;;;;6.59;87.19;97159.41;5111573;28;20407;-64
2022/01/02 03:40:51;;;;;;;6.82;5.25;;;;;;;6.50;87.31;97149.34;5092413;28;20398;-64
2022/01/02 03:43:17;;;;;;;5.03;4.53;;;;;;;6.54;88.23;97153.19;5096954;28;20800;-63
2022/01/02 03:45:42;;;;;;;5.13;4.63;;;;;;;6.64;87.15;97156.22;5115591;28;20750;-63
2022/01/02 03:48:07;;;;;;;5.30;4.80;;;;;;;6.68;87.12;97150.47;5115264;28;20393;-64
2022/01/02 03:50:33;;;;;;;5.47;4.60;;;;;;;6.71;86.30;97149.25;5115341;28;20453;-64
2022/01/02 03:52:58;;;;;;;6.38;4.82;;;;;;;6.71;85.98;97138.03;5115327;28;20718;-64
2022/01/02 03:55:24;;;;;;;5.00;4.50;;;;;;;6.69;85.91;97143.44;5115314;28;20504;-64
2022/01/02 03:57:49;;;;;;;5.07;4.32;;;;;;;6.32;87.26;97139.44;5115241;28;20389;-63
2022/01/02 04:00:15;;;;;;;5.00;4.50;;;;;;;6.47;86.74;97144.50;5115132;28;20387;-64
2022/01/02 04:02:42;;;;;;;5.75;5.07;;;;;;;6.43;86.71;97130.28;5115069;28;20440;-64
2022/01/02 04:05:10;;;;;;;6.23;5.27;;;;;;;6.45;86.68;97120.50;5114641;28;20499;-64
2022/01/02 04:07:36;;;;;;;5.68;5.07;;;;;;;6.44;86.14;97117.06;5115074;28;20415;-64
2022/01/02 04:10:05;;;;;;;6.30;5.70;;;;;;;6.16;87.37;97122.31;5115018;28;20384;-64
2022/01/02 04:12:34;;;;;;;5.72;5.13;;;;;;;6.20;87.29;97125.34;5114712;28;20384;-64
2022/01/02 04:15:00;;;;;;;6.30;5.25;;;;;;;6.15;87.40;97123.31;5115231;28;20497;-64
2022/01/02 04:17:26;;;;;;;6.57;5.37;;;;;;;6.05;88.40;97125.44;5114705;28;20389;-64
2022/01/02 04:19:52;;;;;;;5.90;5.30;;;;;;;5.88;89.34;97123.31;5114943;28;20875;-64
2022/01/02 04:22:18;;;;;;;5.88;5.28;;;;;;;5.93;89.50;97126.94;5095978;28;20492;-64
2022/01/02 04:24:43;;;;;;;6.50;5.47;;;;;;;5.93;89.72;97116.53;5114670;28;20403;-64
2022/01/02 04:27:09;;;;;;;6.20;5.60;;;;;;;5.84;89.41;97120.25;5114448;28;20388;-64
2022/01/02 04:29:34;;;;;;;6.40;5.57;;;;;;;5.74;90.12;97112.75;5114708;28;20481;-64
2022/01/02 04:31:59;;;;;;;6.20;5.60;;;;;;;5.80;89.68;97113.81;5114350;28;20493;-64
2022/01/02 04:34:25;;;;;;;5.57;5.07;;;;;;;5.94;89.46;97109.53;5114555;28;20543;-64
2022/01/02 04:36:50;;;;;;;5.67;5.00;;;;;;;5.78;90.25;97103.59;5113883;28;20884;-67
2022/01/02 04:39:16;;;;;;;5.18;4.68;;;;;;;5.77;91.14;97101.19;5113735;28;20784;-64
2022/01/02 04:41:42;;;;;;;5.00;4.50;;;;;;;5.97;91.06;97094.34;5096018;28;20418;-64
2022/01/02 04:44:07;;;;;;;4.73;4.33;;;;;;;6.05;90.50;97096.03;5114547;28;20384;-64
2022/01/02 04:46:32;;;;;;;5.03;4.53;;;;;;;6.16;90.60;97092.88;5114414;28;20449;-64
2022/01/02 04:48:58;;;;;;;4.90;4.40;;;;;;;6.34;89.85;97087.19;5114103;28;20467;-64
2022/01/02 04:51:23;;;;;;;5.25;4.75;;;;;;;6.32;89.43;97092.56;5113955;28;20383;-64
2022/01/02 04:53:49;;;;;;;6.30;5.00;;;;;;;6.02;90.04;97088.59;5112943;28;20519;-64
2022/01/02 04:56:17;;;;;;;5.83;5.23;;;;;;;6.03;90.00;97083.19;5114101;28;20403;-64
2022/01/02 04:58:43;;;;;;;6.22;5.63;;;;;;;5.84;89.99;97081.25;5114264;28;20390;-64
2022/01/02 05:01:11;;;;;;;6.17;5.57;;;;;;;5.93;89.35;97082.72;5113844;28;20388;-64
2022/01/02 05:03:44;;;;;;;6.25;5.65;;;;;;;5.88;89.53;97079.09;5113356;28;20474;-64
2022/01/02 05:06:10;;;;;;;6.93;6.22;;;;;;;5.98;88.65;97084.75;5113644;28;20435;-64
2022/01/02 05:08:36;;;;;;;7.18;6.47;;;;;;;5.80;88.93;97082.59;5095281;28;20474;-64
2022/01/02 05:11:02;;;;;;;6.85;5.85;;;;;;;5.69;89.46;97089.13;5113872;28;20384;-64
2022/01/02 05:13:27;;;;;;;7.22;6.45;;;;;;;5.76;88.75;97076.97;5113411;28;20471;-64
2022/01/02 05:15:53;;;;;;;6.82;6.22;;;;;;;5.55;89.87;97084.81;5113754;28;20740;-65
2022/01/02 05:18:19;;;;;;;8.77;6.80;;;;;;;5.54;89.13;97085.78;5113915;28;20388;-64
2022/01/02 05:20:46;;;;;;;6.93;6.20;;;;;;;5.29;90.14;97082.78;5113431;28;20937;-64
2022/01/02 05:23:18;;;;;;;8.57;6.20;;;;;;;5.07;90.58;97075.94;5113861;28;20400;-64
2022/01/02 05:25:45;;;;;;;7.60;6.80;;;;;;;4.96;91.64;97061.66;5113438;28;20392;-64
2022/01/02 05:28:10;;;;;;;7.40;6.65;;;;;;;4.75;92.61;97069.44;5113760;28;20384;-64
2022/01/02 05:30:37;;;;;;;7.07;6.27;;;;;;;4.91;92.05;97068.41;5113644;28;20423;-64
2022/01/02 05:33:02;;;;;;;7.40;6.20;;;;;;;4.88;91.71;97063.59;5113840;28;20388;-64
2022/01/02 05:35:29;;;;;;;7.57;6.57;;;;;;;4.86;92.53;97060.34;5112724;28;20420;-65
2022/01/02 05:37:54;;;;;;;8.00;6.77;;;;;;;4.99;91.74;97053.50;5113090;28;20849;-64
2022/01/02 05:40:19;;;;;;;7.17;6.47;;;;;;;4.70;93.04;97063.16;5113250;28;20415;-64
2022/01/02 05:42:45;;;;;;;8.30;6.60;;;;;;;4.86;92.08;97057.75;5113143;28;20698;-64
2022/01/02 05:45:10;;;;;;;7.83;6.80;;;;;;;4.72;92.55;97064.63;5113052;28;20438;-64
2022/01/02 05:47:39;;;;;;;7.67;6.30;;;;;;;4.78;92.88;97063.06;5112878;28;20430;-65
2022/01/02 05:50:06;;;;;;;7.10;6.35;;;;;;;4.74;93.09;97062.63;5096616;28;20756;-64
2022/01/02 05:52:32;;;;;;;7.57;6.38;;;;;;;4.74;92.81;97054.03;5113259;28;20388;-64
2022/01/02 05:54:58;;;;;;;8.73;6.13;;;;;;;4.66;93.53;97041.16;5112540;28;20407;-64
2022/01/02 05:57:24;;;;;;;7.45;6.45;;;;;;;4.60;93.07;97042.72;5112923;28;20393;-64
2022/01/02 05:59:49;;;;;;;8.10;6.53;;;;;;;4.72;93.02;97030.88;5113280;28;20744;-64
2022/01/02 06:02:15;;;;;;;6.93;6.22;;;;;;;4.72;93.12;97035.25;5112029;28;20391;-64
2022/01/02 06:04:40;;;;;;;7.00;6.30;;;;;;;4.81;92.98;97034.13;5112307;28;20388;-64
2022/01/02 06:07:06;;;;;;;6.45;5.70;;;;;;;4.76;93.17;97026.09;5112604;28;20406;-64
2022/01/02 06:09:31;;;;;;;6.53;5.83;;;;;;;4.95;92.21;97030.69;5112530;28;20396;-64
2022/01/02 06:11:56;;;;;;;6.87;5.80;;;;;;;4.99;91.36;97024.94;5094360;28;20772;-64
2022/01/02 06:14:22;;;;;;;6.53;5.93;;;;;;;5.18;90.95;97020.94;5112824;28;20753;-64
2022/01/02 06:16:47;;;;;;;7.43;5.60;;;;;;;4.98;91.34;97019.94;5112792;28;20381;-64
2022/01/02 06:19:13;;;;;;;7.03;5.68;;;;;;;5.10;91.46;97015.03;5094444;28;20467;-64
2022/01/02 06:21:38;;;;;;;5.80;5.30;;;;;;;5.30;90.64;97011.63;5111959;28;20861;-64
2022/01/02 06:24:03;;;;;;;5.80;5.20;;;;;;;5.36;90.91;97012.66;5094280;28;20407;-64
2022/01/02 06:26:29;;;;;;;5.90;5.30;;;;;;;5.57;90.81;97004.03;5112160;28;20814;-64
2022/01/02 06:28:54;;;;;;;6.63;5.00;;;;;;;5.64;90.36;97003.06;5112468;28;20379;-64
2022/01/02 06:31:20;;;;;;;5.10;4.60;;;;;;;5.69;91.20;97005.91;5111740;28;20450;-64
2022/01/02 06:33:45;;;;;;;5.20;4.30;;;;;;;5.77;91.33;97010.16;5112359;28;20388;-64
2022/01/02 06:36:10;;;;;;;4.63;4.23;;;;;;;6.06;90.16;97003.97;5112111;28;20735;-65
2022/01/02 06:38:36;;;;;;;5.80;4.37;;;;;;;6.16;89.66;97010.41;5111795;28;20494;-64
2022/01/02 06:41:01;;;;;;;5.30;3.87;;;;;;;6.33;89.19;97003.09;5111876;28;20430;-64
2022/01/02 06:43:27;;;;;;;4.03;3.67;;;;;;;6.36;88.45;96996.66;5094063;28;20454;-64
2022/01/02 06:45:52;;;;;;;4.13;3.73;;;;;;;6.57;87.91;96993.97;5112281;28;20919;-64
2022/01/02 06:48:17;;;;;;;4.20;3.80;;;;;;;6.65;87.11;97004.19;5111536;28;20388;-64
2022/01/02 06:50:43;;;;;;;4.38;3.92;;;;;;;6.73;86.12;97006.63;5111780;28;20397;-64
2022/01/02 06:53:09;;;;;;;4.32;3.92;;;;;;;6.66;86.22;97003.19;5110348;28;20472;-65
2022/01/02 06:55:35;;;;;;;4.57;4.17;;;;;;;6.78;86.24;97006.03;5111930;28;20580;-64
2022/01/02 06:58:01;;;;;;;4.07;3.67;;;;;;;6.89;85.70;97010.66;5112023;28;20415;-64
2022/01/02 07:00:26;;;;;;;3.88;3.53;;;;;;;6.75;85.92;97012.44;5111761;28;20817;-64
2022/01/02 07:02:52;;;;;;;4.10;3.63;;;;;;;6.98;84.29;97010.28;5111553;28;20463;-64
2022/01/02 07:05:17;;;;;;;3.70;3.40;;;;;;;7.03;83.97;97002.66;5093609;28;20410;-64
2022/01/02 07:07:45;;;;;;;3.80;3.25;;;;;;;7.20;82.56;96986.63;5111875;28;20396;-64
2022/01/02 07:10:11;;;;;;;3.58;3.28;;;;;;;7.30;82.04;96984.44;5111539;28;20384;-64
2022/01/02 07:12:37;;;;;;;3.60;3.10;;;;;;;7.30;81.55;96980.00;5111962;28;20380;-64
2022/01/02 07:15:04;;;;;;;3.60;3.30;;;;;;;7.29;81.54;96980.25;5111889;28;20408;-64
2022/01/02 07:17:29;;;;;;;3.70;3.38;;;;;;;7.25;82.22;96986.84;5114328;28;20883;-65
2022/01/02 07:19:55;;;;;;;3.23;3.03;;;;;;;7.23;82.09;96992.28;5115822;28;20388;-70
2022/01/02 07:22:20;;;;;;;3.75;3.40;;;;;;;7.21;81.59;96993.47;5116089;28;20442;-66
2022/01/02 07:24:50;;;;;;;3.93;3.47;;;;;;;7.38;81.39;96989.44;5115860;28;20396;-65
2022/01/02 07:27:16;;;;;;;3.60;3.30;;;;;;;7.43;80.40;96993.06;5116170;28;20481;-65
2022/01/02 07:29:42;;;;;;;3.17;2.93;;;;;;;7.55;79.87;96988.03;5115753;28;20888;-64
2022/01/02 07:32:07;;;;;;;3.10;2.80;;;;;;;7.68;78.72;96990.66;5115986;28;20487;-65
2022/01/02 07:34:33;;;;;;;3.25;2.95;;;;;;;7.67;78.82;96983.81;5115338;28;20884;-66
2022/01/02 07:36:58;;;;;;;3.27;2.97;;;;;;;7.68;78.68;96974.19;5115436;28;20420;-66
2022/01/02 07:39:23;;;;;;;3.50;3.20;;;;;;;7.68;78.75;96982.81;5116171;28;20416;-65
2022/01/02 07:41:49;;;;;;;3.07;2.77;;;;;;;7.70;78.83;96986.00;5115768;28;20932;-65
2022/01/02 07:44:14;;;;;;;3.20;2.90;;;;;;;7.48;79.74;96985.44;5115738;28;20479;-64
2022/01/02 07:46:39;;;;;;;3.30;3.03;;;;;;;7.57;79.70;96996.47;5115612;28;20860;-65
2022/01/02 07:49:05;;;;;;;5.20;4.27;;;;;;;8.28;95.12;96986.88;5115541;28;20487;-68
2022/01/02 07:51:31;;;;;;;5.20;4.35;;;;;;;8.99;79.85;96991.16;5115501;28;20461;-65
2022/01/02 07:53:57;;;;;;;4.57;3.75;;;;;;;8.42;77.19;96990.25;5115449;28;20396;-67
2022/01/02 07:56:22;;;;;;;3.72;3.40;;;;;;;8.12;76.63;96991.75;5099074;28;20392;-64
2022/01/02 07:58:47;;;;;;;3.67;3.33;;;;;;;7.57;78.59;96988.66;5115794;28;20395;-64
2022/01/02 08:01:13;;;;;;;4.43;3.90;;;;;;;7.68;78.36;96995.06;5115000;28;20393;-64
2022/01/02 08:03:39;;;;;;;5.10;3.28;;;;;;;7.83;77.78;96993.03;5114521;28;20457;-64
2022/01/02 08:06:04;;;;;;;3.93;3.53;;;;;;;7.66;78.17;96991.84;5115076;28;21048;-64
2022/01/02 08:08:29;;;;;;;4.23;3.83;;;;;;;7.52;79.05;96994.44;5115001;28;20389;-64
2022/01/02 08:10:55;;;;;;;4.30;3.90;;;;;;;7.51;78.49;96992.88;5114492;28;20384;-64
2022/01/02 08:13:20;;;;;;;4.20;3.80;;;;;;;7.21;79.60;96994.25;5115300;28;20490;-64
2022/01/02 08:15:48;;;;;;;4.33;3.97;;;;;;;7.30;79.90;97010.53;5114768;28;20400;-64
2022/01/02 08:18:13;;;;;;;5.03;4.60;;;;;;;7.31;79.58;97004.28;5115216;28;20396;-63
2022/01/02 08:20:45;;;;;;;5.50;4.20;;;;;;;7.41;78.74;97004.72;5114625;28;20894;-64
2022/01/02 08:23:12;;;;;;;5.22;4.45;;;;;;;7.04;80.78;97003.47;5114958;28;20411;-63
2022/01/02 08:25:37;;;;;;;4.72;4.25;;;;;;;6.91;81.61;96990.44;5114577;28;20387;-63
2022/01/02 08:28:03;;;;;;;5.00;4.22;;;;;;;7.06;81.46;96983.22;5094916;28;20400;-64
2022/01/02 08:30:28;;;;;;;4.30;3.87;;;;;;;7.37;80.41;96982.63;5114334;28;20471;-63
2022/01/02 08:32:54;;;;;;;4.25;3.75;;;;;;;7.62;79.84;96982.81;5114743;28;20380;-64
2022/01/02 08:35:19;;;;;;;4.40;3.90;;;;;;;8.05;77.18;96993.56;5114361;28;20895;-64
2022/01/02 08:37:44;;;;;;;4.97;4.10;;;;;;;8.33;75.93;96992.31;5114293;28;20868;-63
2022/01/02 08:40:10;;;;;;;4.27;3.87;;;;;;;8.33;74.61;96992.31;5114423;28;20389;-64
2022/01/02 08:42:35;;;;;;;5.33;4.13;;;;;;;8.33;74.85;96991.50;5114168;28;20391;-63
2022/01/02 08:45:01;;;;;;;3.53;3.23;;;;;;;8.50;74.09;96971.72;5114027;28;20396;-64
2022/01/02 08:47:26;;;;;;;3.80;3.37;;;;;;;8.52;73.62;96981.97;5113890;28;20411;-64
2022/01/02 08:49:52;;;;;;;3.65;3.33;;;;;;;8.75;72.86;96987.47;5114024;28;20428;-64
2022/01/02 08:52:18;;;;;;;3.50;3.20;;;;;;;8.95;71.71;96984.75;5114269;28;20404;-63
2022/01/02 08:54:43;;;;;;;3.50;3.10;;;;;;;9.17;70.97;96983.38;5113984;28;20409;-63
2022/01/02 08:57:10;;;;;;;4.18;3.20;;;;;;;9.20;71.51;96980.34;5113650;28;20438;-64
2022/01/02 08:59:35;;;;;;;3.47;3.17;;;;;;;9.18;70.61;96982.38;5113967;28;20392;-64
2022/01/02 09:02:00;;;;;;;3.25;2.95;;;;;;;9.23;69.62;96981.72;5113982;28;20395;-68
2022/01/02 09:04:26;;;;;;;3.50;2.63;;;;;;;9.44;69.07;96973.50;5113503;28;20492;-66
2022/01/02 09:06:51;;;;;;;3.03;2.73;;;;;;;9.51;67.72;96982.09;5114060;28;20396;-64
2022/01/02 09:09:17;;;;;;;2.50;2.30;;;;;;;9.89;66.63;96989.81;5113867;28;20396;-64
2022/01/02 09:11:43;;;;;;;2.47;2.28;;;;;;;9.97;65.87;96986.91;5113492;28;20857;-65
2022/01/02 09:14:08;;;;;;;2.35;1.95;;;;;;;10.07;65.52;96989.03;5113153;28;20400;-65
2022/01/02 09:16:34;;;;;;;2.30;2.10;;;;;;;10.29;64.52;96998.06;5094469;28;20384;-65
2022/01/02 09:18:59;;;;;;;2.53;2.30;;;;;;;10.49;63.69;96993.38;5113561;28;20545;-66
2022/01/02 09:21:25;;;;;;;2.47;2.23;;;;;;;10.66;63.95;96986.50;5112951;28;20421;-65
2022/01/02 09:23:50;;;;;;;2.40;2.20;;;;;;;10.83;62.55;96984.88;5113706;28;20459;-65
2022/01/02 09:26:16;;;;;;;2.43;2.23;;;;;;;10.87;62.54;96985.22;5113283;28;20392;-66
2022/01/02 09:28:41;;;;;;;2.57;2.37;;;;;;;11.09;61.54;96986.31;5095270;28;20406;-66
2022/01/02 09:31:07;;;;;;;3.10;2.40;;;;;;;11.22;61.54;96990.56;5113684;28;20433;-64
2022/01/02 09:33:32;;;;;;;2.47;2.27;;;;;;;10.99;62.47;96985.25;5113733;28;20388;-64
2022/01/02 09:35:58;;;;;;;2.57;2.37;;;;;;;11.02;62.68;96984.81;5094868;28;20935;-64
2022/01/02 09:38:24;;;;;;;3.50;2.93;;;;;;;11.19;62.09;96991.81;5112895;28;20444;-66
2022/01/02 09:40:50;;;;;;;3.13;2.57;;;;;;;10.92;63.17;96981.94;5094401;28;20412;-65
2022/01/02 09:43:16;;;;;;;3.08;2.78;;;;;;;11.14;62.27;96994.31;5113162;28;20467;-64
2022/01/02 09:45:45;;;;;;;2.90;2.65;;;;;;;10.85;62.82;97008.25;5113072;28;20479;-67
2022/01/02 09:48:11;;;;;;;3.10;2.67;;;;;;;10.61;63.85;97007.34;5109088;28;20380;-65
2022/01/02 09:50:39;;;;;;;3.30;2.90;;;;;;;10.60;63.75;97007.56;5113130;28;20388;-65
2022/01/02 09:53:05;;;;;;;4.20;2.90;;;;;;;10.64;63.86;97001.69;5113022;28;20406;-67
2022/01/02 09:55:30;;;;;;;3.05;2.80;;;;;;;10.51;64.19;96999.22;5112931;28;20404;-66
2022/01/02 09:58:00;;;;;;;3.17;2.88;;;;;;;10.77;63.12;96984.94;5112275;28;20445;-66
2022/01/02 10:00:27;;;;;;;2.93;2.73;;;;;;;11.00;62.13;96990.28;5109904;27;21113;-65
2022/01/02 10:03:00;;;;;;;2.63;2.42;;;;;;;11.15;60.90;96990.66;5112826;28;20463;-66
2022/01/02 10:05:27;;;;;;;2.78;2.58;;;;;;;11.29;60.53;96982.59;5112126;28;20380;-66
2022/01/02 10:07:53;;;;;;;2.88;2.50;;;;;;;11.14;61.32;96986.47;5112393;28;20476;-66
2022/01/02 10:10:19;;;;;;;8.05;3.03;;;;;;;11.06;63.37;96989.38;5112017;28;20884;-63
2022/01/02 10:12:45;;;;;;;3.90;3.50;;;;;;;11.43;62.71;96978.72;5112561;28;20393;-64
2022/01/02 10:15:19;;;;;;;3.20;2.90;;;;;;;11.85;60.44;96990.78;5112643;28;20447;-65
2022/01/02 10:17:57;;;;;;;3.08;2.80;;;;;;;12.03;59.75;96982.78;5112195;28;20904;-66
2022/01/02 10:20:25;;;;;;;69.18;62.65;;;;;;;12.02;61.36;96980.38;5112208;28;20865;-64
2022/01/02 10:23:11;;;;;;;21.20;16.50;;;;;;;12.13;60.13;96984.00;5112144;28;20776;-65
2022/01/02 10:25:41;;;;;;;112.30;91.30;;;;;;;12.15;59.92;96966.19;5112262;28;20400;-64
2022/01/02 10:28:28;;;;;;;20.93;18.77;;;;;;;12.36;59.01;96981.31;5112007;28;20795;-64
2022/01/02 10:31:06;;;;;;;27.38;25.23;;;;;;;12.15;58.92;96979.31;5112136;28;20393;-65
2022/01/02 10:33:48;;;;;;;5.68;4.65;;;;;;;11.99;59.16;96975.56;5106362;28;20418;-65
2022/01/02 10:36:14;;;;;;;3.93;3.20;;;;;;;11.92;60.26;96959.13;5112002;28;20444;-65
2022/01/02 10:38:58;;;;;;;4.10;3.70;;;;;;;11.32;63.24;96945.38;5112306;28;20408;-65
2022/01/02 10:41:33;;;;;;;4.32;3.75;;;;;;;11.23;64.08;96939.69;5112276;28;20864;-68
2022/01/02 10:44:23;;;;;;;4.35;3.83;;;;;;;10.75;65.71;96929.34;5112231;28;20445;-65
2022/01/02 10:47:15;;;;;;;3.90;3.50;;;;;;;10.56;66.74;96927.78;5112057;28;20419;-66
2022/01/02 10:50:07;;;;;;;4.25;3.80;;;;;;;10.54;66.64;96929.81;5112108;28;20412;-66
2022/01/02 10:52:41;;;;;;;5.13;3.67;;;;;;;10.39;67.52;96930.22;5111455;28;20500;-65
2022/01/02 10:55:16;;;;;;;4.35;3.95;;;;;;;10.32;68.40;96929.50;5094843;28;20546;-65
2022/01/02 10:57:43;;;;;;;4.50;4.10;;;;;;;10.39;69.39;96931.03;5111127;28;20396;-66
2022/01/02 11:00:10;;;;;;;5.50;4.30;;;;;;;10.73;68.26;96944.47;5111445;28;20542;-65
2022/01/02 11:02:38;;;;;;;5.28;4.78;;;;;;;11.48;83.84;96932.41;5111500;28;20474;-68
2022/01/02 11:05:10;;;;;;;4.85;4.18;;;;;;;11.76;67.23;96936.97;5111340;28;20388;-65
2022/01/02 11:07:59;;;;;;;4.78;4.00;;;;;;;11.21;66.05;96942.53;5111798;28;20475;-65
2022/01/02 11:10:27;;;;;;;4.30;3.87;;;;;;;10.72;67.60;96943.69;5111843;28;20398;-66
2022/01/02 11:12:53;;;;;;;4.30;3.90;;;;;;;10.64;67.68;96938.78;5112144;28;20384;-65
2022/01/02 11:15:21;;;;;;;5.40;3.78;;;;;;;10.59;68.07;96936.00;5093563;28;20761;-64
2022/01/02 11:17:47;;;;;;;5.07;3.63;;;;;;;10.32;68.88;96950.47;5093512;28;20400;-62
2022/01/02 11:20:18;;;;;;;3.80;3.40;;;;;;;10.24;67.81;96953.41;5112053;28;20399;-64
2022/01/02 11:22:59;;;;;;;3.95;3.10;;;;;;;10.55;66.55;96950.56;5093827;28;20411;-68
2022/01/02 11:25:33;;;;;;;4.00;3.38;;;;;;;10.80;65.77;96946.00;5111919;28;20396;-65
2022/01/02 11:28:05;;;;;;;4.68;3.50;;;;;;;10.67;66.45;96946.19;5110647;28;20388;-65
2022/01/02 11:30:31;;;;;;;3.65;3.33;;;;;;;10.94;65.84;96949.22;5111487;28;20767;-66
2022/01/02 11:33:15;;;;;;;3.97;3.45;;;;;;;11.15;65.33;96953.13;5108989;28;20449;-65
2022/01/02 11:35:49;;;;;;;3.55;3.03;;;;;;;10.97;65.89;96953.22;5111182;28;20428;-64
2022/01/02 11:38:17;;;;;;;4.50;3.30;;;;;;;11.12;65.53;96946.53;5109247;28;20500;-65
2022/01/02 11:40:44;;;;;;;5.28;3.30;;;;;;;11.29;64.43;96937.97;5110924;28;20857;-65
2022/01/02 11:43:09;;;;;;;3.87;3.07;;;;;;;11.43;63.78;96941.97;5111507;28;20399;-65
2022/01/02 11:45:34;;;;;;;3.30;2.70;;;;;;;11.37;63.17;96922.69;5111562;28;20384;-65
2022/01/02 11:48:01;;;;;;;2.77;2.57;;;;;;;11.45;63.24;96921.56;5109869;28;20391;-65
2022/01/02 11:50:31;;;;;;;3.08;2.50;;;;;;;11.27;62.31;96912.78;5109916;28;20826;-67